Аэропорт: Сургут. Сургут

ICAO: USRR

METAR:
2021-01-19 11:00:00
USRR 191100Z 28004MPS CAVOK M31/M34 Q1017 R25/420240 NOSIG RMK QFE757
METAR:
2021-01-19 07:55:00
TAF USRR 190755Z 1909/2009 26003G08MPS 9999 SCT020 TEMPO 1909/1915 5000 -SHSN BKN015CB TEMPO 1915/1924 5000 BR FEW003 SCT020